createdAt,value
2022-11-05T00:01:15.442Z,18.50
2022-11-05T00:04:29.805Z,23.70
2022-11-05T00:07:29.418Z,24.40
2022-11-05T00:10:07.388Z,22.30
2022-11-05T00:12:56.153Z,23.60
2022-11-05T00:15:43.003Z,22.90
2022-11-05T00:18:11.728Z,21.80
2022-11-05T00:20:40.389Z,20.60
2022-11-05T00:23:27.202Z,23.10
2022-11-05T00:26:02.894Z,18.10
2022-11-05T00:28:33.072Z,25.30
2022-11-05T00:31:21.913Z,19.60
2022-11-05T00:33:50.486Z,18.90
2022-11-05T00:36:19.715Z,19.30
2022-11-05T00:38:48.350Z,19.40
2022-11-05T00:41:16.921Z,19.70
2022-11-05T00:44:03.956Z,17.60
2022-11-05T00:46:32.494Z,16.80
2022-11-05T00:49:19.554Z,18.40
2022-11-05T00:51:48.147Z,19.10
2022-11-05T00:54:16.885Z,22.50
2022-11-05T00:56:45.432Z,16.30
2022-11-05T00:59:14.060Z,15.90
2022-11-05T01:01:42.693Z,16.90
2022-11-05T01:04:11.324Z,26.60
2022-11-05T01:06:39.883Z,19.80
2022-11-05T01:09:08.497Z,17.20
2022-11-05T01:11:37.463Z,15.10
2022-11-05T01:14:18.414Z,20.40
2022-11-05T01:16:47.028Z,17.60
2022-11-05T01:19:15.722Z,18.70
2022-11-05T01:21:44.363Z,20.20
2022-11-05T01:24:13.008Z,16.30
2022-11-05T01:26:41.568Z,19.60
2022-11-05T01:29:11.373Z,18.80
2022-11-05T01:31:39.953Z,18.00
2022-11-05T01:34:08.551Z,20.80
2022-11-05T01:36:37.178Z,17.90
2022-11-05T01:39:06.116Z,18.40
2022-11-05T01:41:34.750Z,18.80
2022-11-05T01:44:03.608Z,22.40
2022-11-05T01:46:38.856Z,18.30
2022-11-05T01:49:28.480Z,17.50
2022-11-05T01:52:00.096Z,20.40
2022-11-05T01:54:32.630Z,17.80
2022-11-05T01:57:08.211Z,18.80
2022-11-05T01:59:46.238Z,19.00
2022-11-05T02:02:15.003Z,19.20
2022-11-05T02:04:58.925Z,18.90
2022-11-05T02:07:29.148Z,18.10
2022-11-05T02:10:10.215Z,17.00
2022-11-05T02:12:42.327Z,17.80
2022-11-05T02:15:14.105Z,17.70
2022-11-05T02:18:06.422Z,21.90
2022-11-05T02:20:52.329Z,19.00
2022-11-05T02:23:51.698Z,17.80
2022-11-05T02:26:57.118Z,19.80
2022-11-05T02:29:56.608Z,20.40
2022-11-05T02:32:56.747Z,19.20
2022-11-05T02:35:37.223Z,19.80
2022-11-05T02:38:43.349Z,18.60
2022-11-05T02:41:48.061Z,18.20
2022-11-05T02:44:41.650Z,17.80
2022-11-05T02:47:50.451Z,17.40
2022-11-05T02:50:23.319Z,17.70
2022-11-05T02:52:58.601Z,18.70
2022-11-05T02:55:35.057Z,15.30
2022-11-05T02:58:06.064Z,20.10
2022-11-05T03:01:00.635Z,16.70
2022-11-05T03:03:40.621Z,20.70
2022-11-05T03:06:36.238Z,18.10
2022-11-05T03:09:25.800Z,19.10
2022-11-05T03:12:10.646Z,15.10
2022-11-05T03:15:22.008Z,18.80
2022-11-05T03:18:11.806Z,19.30
2022-11-05T03:20:46.794Z,20.40
2022-11-05T03:23:42.852Z,19.90
2022-11-05T03:26:35.934Z,19.10
2022-11-05T03:29:19.601Z,19.10
2022-11-05T03:31:50.686Z,20.50
2022-11-05T03:34:25.114Z,17.30
2022-11-05T03:36:57.331Z,20.40
2022-11-05T03:39:35.694Z,19.80
2022-11-05T03:42:08.785Z,20.80
2022-11-05T03:47:15.642Z,21.20
2022-11-05T03:50:04.990Z,19.90
2022-11-05T03:52:44.270Z,21.50
2022-11-05T03:55:13.109Z,19.30
2022-11-05T03:57:47.393Z,22.30
2022-11-05T04:00:17.117Z,19.50
2022-11-05T04:02:45.861Z,22.70
2022-11-05T04:05:14.613Z,17.80
2022-11-05T04:08:03.633Z,21.60
2022-11-05T04:10:50.363Z,20.20
2022-11-05T04:13:24.882Z,24.60
2022-11-05T04:16:14.406Z,22.40
2022-11-05T04:18:43.768Z,25.30
2022-11-05T04:21:31.061Z,20.20
2022-11-05T04:24:11.355Z,21.60
2022-11-05T04:26:43.991Z,22.10
2022-11-05T04:29:30.855Z,22.50
2022-11-05T04:31:59.428Z,24.40
2022-11-05T04:34:28.041Z,21.20
2022-11-05T04:36:56.607Z,23.40
2022-11-05T04:39:25.201Z,25.50
2022-11-05T04:41:53.751Z,28.30
2022-11-05T04:44:22.361Z,24.30
2022-11-05T04:46:51.025Z,20.40
2022-11-05T04:49:19.553Z,21.80
2022-11-05T04:51:48.186Z,20.00
2022-11-05T04:54:16.801Z,22.30
2022-11-05T04:56:45.382Z,22.20
2022-11-05T04:59:14.009Z,21.90
2022-11-05T05:01:42.680Z,22.70
2022-11-05T05:04:11.449Z,21.70
2022-11-05T05:06:39.974Z,20.70
2022-11-05T05:09:08.588Z,20.30
2022-11-05T05:11:37.319Z,20.50
2022-11-05T05:14:05.992Z,22.90
2022-11-05T05:16:34.605Z,22.00
2022-11-05T05:19:03.284Z,22.90
2022-11-05T05:21:41.151Z,19.70
2022-11-05T05:24:19.750Z,25.50
2022-11-05T05:26:50.312Z,24.30
2022-11-05T05:29:19.128Z,20.00
2022-11-05T05:31:47.718Z,18.90
2022-11-05T05:34:16.252Z,29.20
2022-11-05T05:36:44.906Z,24.50
2022-11-05T05:39:15.974Z,22.50
2022-11-05T05:41:44.532Z,24.10
2022-11-05T05:44:13.114Z,25.30
2022-11-05T05:46:41.824Z,25.60
2022-11-05T05:49:12.596Z,24.10
2022-11-05T05:51:41.471Z,23.40
2022-11-05T05:54:11.823Z,24.30
2022-11-05T05:56:40.441Z,23.70
2022-11-05T05:59:09.111Z,24.90
2022-11-05T06:01:38.283Z,25.10
2022-11-05T06:04:07.074Z,25.80
2022-11-05T06:06:35.608Z,24.00
2022-11-05T06:09:04.382Z,24.70
2022-11-05T06:11:33.098Z,27.10
2022-11-05T06:14:02.382Z,27.20
2022-11-05T06:16:36.041Z,19.40
2022-11-05T06:19:05.770Z,23.80
2022-11-05T06:21:34.726Z,23.10
2022-11-05T06:24:04.130Z,25.00
2022-11-05T06:26:32.750Z,25.50
2022-11-05T06:29:01.374Z,26.90
2022-11-05T06:31:29.944Z,22.10
2022-11-05T06:33:58.595Z,28.90
2022-11-05T06:36:27.238Z,25.30
2022-11-05T06:38:55.906Z,25.60
2022-11-05T06:41:24.517Z,29.90
2022-11-05T06:43:53.141Z,30.70
2022-11-05T06:46:21.743Z,23.90
2022-11-05T06:48:51.238Z,23.80
2022-11-05T06:51:19.919Z,26.00
2022-11-05T06:53:48.613Z,30.10
2022-11-05T06:56:17.419Z,24.10
2022-11-05T06:58:46.321Z,25.90
2022-11-05T07:01:15.032Z,25.90
2022-11-05T07:03:45.244Z,25.50
2022-11-05T07:06:13.965Z,22.60
2022-11-05T07:08:42.721Z,25.90
2022-11-05T07:11:11.372Z,29.10
2022-11-05T07:13:40.547Z,25.00
2022-11-05T07:16:09.570Z,28.50
2022-11-05T07:18:38.325Z,22.20
2022-11-05T07:21:07.110Z,28.90
2022-11-05T07:23:35.918Z,27.80
2022-11-05T07:26:05.064Z,28.60
2022-11-05T07:28:33.762Z,25.20
2022-11-05T07:31:02.779Z,27.10
2022-11-05T07:33:36.349Z,28.40
2022-11-05T07:36:06.208Z,28.10
2022-11-05T07:38:35.211Z,28.00
2022-11-05T07:41:04.484Z,25.10
2022-11-05T07:43:33.346Z,27.50
2022-11-05T07:46:02.127Z,35.20
2022-11-05T07:48:30.925Z,25.70
2022-11-05T07:50:59.719Z,25.20
2022-11-05T07:53:28.557Z,23.50
2022-11-05T07:55:59.072Z,27.00
2022-11-05T07:58:27.876Z,30.60
2022-11-05T08:00:58.273Z,26.20
2022-11-05T08:03:27.167Z,27.40
2022-11-05T08:05:56.011Z,25.80
2022-11-05T08:08:24.811Z,27.20
2022-11-05T08:10:53.755Z,28.00
2022-11-05T08:13:22.736Z,26.40
2022-11-05T08:15:51.475Z,27.60
2022-11-05T08:18:20.181Z,26.60
2022-11-05T08:20:49.093Z,26.40
2022-11-05T08:23:17.878Z,25.80
2022-11-05T08:25:46.659Z,25.80
2022-11-05T08:28:15.476Z,25.40
2022-11-05T08:30:44.082Z,24.90
2022-11-05T08:33:14.746Z,29.40
2022-11-05T08:35:43.854Z,25.40
2022-11-05T08:38:14.804Z,21.50
2022-11-05T08:40:47.140Z,24.10
2022-11-05T08:43:16.520Z,25.00
2022-11-05T08:45:45.289Z,27.60
2022-11-05T08:48:17.661Z,27.20
2022-11-05T08:50:49.006Z,24.10
2022-11-05T08:53:18.137Z,22.30
2022-11-05T08:55:47.966Z,27.70
2022-11-05T08:58:17.555Z,22.10
2022-11-05T09:00:49.650Z,22.90
2022-11-05T09:03:18.850Z,23.10
2022-11-05T09:05:47.674Z,21.40
2022-11-05T09:08:19.435Z,21.60
2022-11-05T09:10:50.037Z,20.20
2022-11-05T09:13:20.095Z,23.70
2022-11-05T09:15:50.463Z,25.30
2022-11-05T09:18:20.519Z,21.80
2022-11-05T09:20:49.261Z,20.20
2022-11-05T09:23:18.135Z,24.10
2022-11-05T09:25:46.899Z,21.70
2022-11-05T09:28:20.507Z,19.40
2022-11-05T09:30:52.110Z,22.50
2022-11-05T09:33:25.745Z,25.30
2022-11-05T09:35:54.684Z,20.70
2022-11-05T09:38:23.349Z,23.90
2022-11-05T09:41:13.051Z,17.90
2022-11-05T09:43:50.964Z,17.10
2022-11-05T09:46:25.224Z,19.40
2022-11-05T09:49:03.473Z,20.20
2022-11-05T09:51:32.954Z,22.00
2022-11-05T09:54:05.714Z,20.20
2022-11-05T09:56:37.587Z,24.80
2022-11-05T09:59:24.816Z,25.00
2022-11-05T10:02:11.789Z,21.30
2022-11-05T10:04:43.734Z,17.00
2022-11-05T10:07:19.393Z,19.40
2022-11-05T10:09:54.089Z,21.50
2022-11-05T10:12:48.328Z,15.10
2022-11-05T10:15:25.013Z,21.40
2022-11-05T10:18:12.862Z,18.10
2022-11-05T10:20:43.946Z,21.10
2022-11-05T10:23:17.619Z,18.70
2022-11-05T10:25:53.152Z,14.80
2022-11-05T10:28:26.183Z,16.00
2022-11-05T10:31:12.197Z,17.20
2022-11-05T10:34:03.722Z,15.60
2022-11-05T10:36:36.499Z,18.50
2022-11-05T10:42:25.048Z,18.30
2022-11-05T10:45:12.809Z,17.60
2022-11-05T10:48:22.886Z,15.70
2022-11-05T10:50:51.653Z,14.20
2022-11-05T10:53:39.313Z,16.70
2022-11-05T10:56:39.025Z,22.10
2022-11-05T10:59:30.409Z,20.20
2022-11-05T11:02:09.943Z,16.90
2022-11-05T11:04:38.751Z,20.20
2022-11-05T11:07:22.206Z,17.90
2022-11-05T11:09:51.914Z,17.00
2022-11-05T11:12:41.102Z,15.00
2022-11-05T11:15:24.383Z,19.10
2022-11-05T11:20:32.149Z,15.90
2022-11-05T11:23:15.489Z,16.90
2022-11-05T11:26:02.076Z,15.50
2022-11-05T11:29:21.492Z,20.80
2022-11-05T11:31:58.275Z,18.20
2022-11-05T11:34:34.858Z,17.40
2022-11-05T11:37:28.924Z,20.00
2022-11-05T11:40:04.387Z,24.00
2022-11-05T11:42:39.550Z,15.30
2022-11-05T11:45:38.338Z,13.50
2022-11-05T11:48:14.708Z,17.50
2022-11-05T11:50:46.844Z,16.00
2022-11-05T11:53:21.722Z,15.40
2022-11-05T11:56:01.985Z,17.80
2022-11-05T11:58:58.030Z,17.70
2022-11-05T12:02:03.945Z,15.10
2022-11-05T12:05:04.831Z,13.80
2022-11-05T12:07:58.385Z,14.20
2022-11-05T12:10:41.969Z,24.10
2022-11-05T12:13:20.677Z,17.00
2022-11-05T12:16:06.706Z,19.00
2022-11-05T12:18:55.272Z,16.00
2022-11-05T12:21:51.502Z,20.90
2022-11-05T12:24:40.853Z,16.20
2022-11-05T12:27:18.711Z,15.30
2022-11-05T12:30:16.531Z,19.50
2022-11-05T12:33:03.423Z,34.70
2022-11-05T12:35:48.979Z,17.00
2022-11-05T12:38:57.680Z,14.80
2022-11-05T12:41:39.083Z,15.00
2022-11-05T12:44:46.533Z,18.60
2022-11-05T12:47:57.753Z,13.80
2022-11-05T12:50:53.734Z,14.50
2022-11-05T12:53:56.486Z,14.10
2022-11-05T12:56:36.261Z,18.80
2022-11-05T12:59:32.124Z,14.00
2022-11-05T13:02:29.066Z,17.40
2022-11-05T13:05:35.305Z,13.70
2022-11-05T13:08:03.984Z,14.10
2022-11-05T13:11:21.951Z,14.70
2022-11-05T13:14:02.874Z,14.40
2022-11-05T13:16:49.850Z,12.40
2022-11-05T13:19:35.091Z,12.70
2022-11-05T13:23:01.000Z,15.60
2022-11-05T13:25:35.002Z,11.20
2022-11-05T13:28:28.638Z,11.60
2022-11-05T13:31:01.697Z,12.80
2022-11-05T13:33:42.362Z,12.80
2022-11-05T13:36:45.834Z,12.50
2022-11-05T13:39:26.040Z,9.80
2022-11-05T13:42:05.397Z,10.90
2022-11-05T13:44:51.947Z,11.30
2022-11-05T13:48:08.472Z,12.70
2022-11-05T13:51:23.552Z,12.70
2022-11-05T13:54:13.054Z,16.50
2022-11-05T13:57:04.908Z,12.70
2022-11-05T13:59:51.745Z,12.50
2022-11-05T14:02:35.218Z,10.90
2022-11-05T14:05:06.801Z,11.10
2022-11-05T14:07:45.798Z,11.10
2022-11-05T14:10:37.791Z,9.70
2022-11-05T14:13:17.362Z,9.30
2022-11-05T14:16:11.151Z,11.80
2022-11-05T14:19:06.590Z,10.30
2022-11-05T14:21:49.398Z,12.40
2022-11-05T14:24:24.307Z,10.80
2022-11-05T14:27:01.896Z,9.60
2022-11-05T14:29:43.922Z,12.90
2022-11-05T14:32:21.240Z,14.80
2022-11-05T14:35:36.460Z,13.40
2022-11-05T14:38:17.943Z,11.70
2022-11-05T14:40:47.800Z,9.20
2022-11-05T14:43:26.226Z,11.20
2022-11-05T14:46:01.002Z,14.10
2022-11-05T14:48:41.288Z,13.10
2022-11-05T14:51:21.923Z,10.40
2022-11-05T14:53:51.635Z,14.50
2022-11-05T14:56:20.429Z,9.30
2022-11-05T14:58:49.137Z,7.70
2022-11-05T15:01:35.874Z,10.70
2022-11-05T15:04:40.589Z,12.30
2022-11-05T15:07:09.198Z,12.00
2022-11-05T15:09:59.271Z,8.80
2022-11-05T15:12:46.019Z,7.60
2022-11-05T15:15:44.664Z,7.60
2022-11-05T15:18:34.176Z,9.40
2022-11-05T15:21:05.121Z,12.00
2022-11-05T15:23:42.738Z,13.40
2022-11-05T15:26:50.581Z,7.50
2022-11-05T15:29:24.931Z,10.00
2022-11-05T15:31:54.102Z,8.90
2022-11-05T15:34:30.136Z,9.40
2022-11-05T15:37:20.486Z,9.10
2022-11-05T15:39:52.565Z,7.50
2022-11-05T15:42:27.450Z,9.60
2022-11-05T15:44:59.117Z,7.00
2022-11-05T15:47:34.465Z,8.30
2022-11-05T15:50:21.365Z,7.90
2022-11-05T15:52:54.075Z,6.10
2022-11-05T15:55:25.990Z,8.50
2022-11-05T15:58:06.516Z,9.90
2022-11-05T16:00:37.317Z,12.90
2022-11-05T16:03:17.802Z,9.80
2022-11-05T16:05:48.685Z,7.40
2022-11-05T16:08:30.599Z,10.40
2022-11-05T16:11:01.223Z,8.90
2022-11-05T16:13:37.115Z,9.80
2022-11-05T16:16:34.061Z,8.10
2022-11-05T16:19:40.169Z,6.40
2022-11-05T16:22:09.582Z,4.90
2022-11-05T16:24:38.540Z,6.70
2022-11-05T16:27:18.976Z,5.90
2022-11-05T16:29:55.749Z,7.30
2022-11-05T16:32:31.193Z,9.50
2022-11-05T16:35:03.755Z,6.20
2022-11-05T16:37:41.243Z,7.20
2022-11-05T16:40:21.381Z,8.50
2022-11-05T16:42:53.125Z,8.30
2022-11-05T16:45:25.144Z,6.00
2022-11-05T16:47:53.962Z,9.60
2022-11-05T16:50:32.606Z,7.90
2022-11-05T16:53:01.269Z,8.10
2022-11-05T16:55:33.128Z,5.20
2022-11-05T16:58:02.375Z,6.10
2022-11-05T17:00:31.232Z,9.40
2022-11-05T17:03:00.160Z,11.50
2022-11-05T17:05:31.857Z,14.60
2022-11-05T17:08:01.777Z,7.10
2022-11-05T17:10:30.934Z,6.40
2022-11-05T17:13:00.529Z,7.30
2022-11-05T17:15:33.741Z,6.50
2022-11-05T17:18:03.609Z,9.00
2022-11-05T17:20:51.755Z,7.30
2022-11-05T17:23:24.120Z,5.30
2022-11-05T17:26:02.187Z,5.70
2022-11-05T17:28:31.365Z,6.80
2022-11-05T17:31:05.561Z,6.70
2022-11-05T17:33:35.173Z,7.00
2022-11-05T17:36:15.985Z,5.30
2022-11-05T17:38:45.185Z,9.90
2022-11-05T17:41:17.228Z,8.30
2022-11-05T17:43:46.838Z,14.20
2022-11-05T17:46:17.143Z,7.80
2022-11-05T17:48:46.654Z,9.60
2022-11-05T17:51:17.354Z,4.90
2022-11-05T17:53:49.385Z,10.10
2022-11-05T17:56:32.124Z,10.90
2022-11-05T17:59:03.669Z,9.20
2022-11-05T18:01:36.058Z,7.10
2022-11-05T18:04:09.047Z,7.10
2022-11-05T18:06:39.721Z,8.30
2022-11-05T18:09:10.144Z,8.00
2022-11-05T18:11:39.835Z,7.70
2022-11-05T18:14:08.863Z,5.90
2022-11-05T18:16:37.923Z,8.80
2022-11-05T18:19:06.655Z,4.60
2022-11-05T18:21:35.270Z,8.60
2022-11-05T18:24:07.847Z,5.80
2022-11-05T18:26:36.463Z,7.00
2022-11-05T18:29:06.397Z,7.70
2022-11-05T18:31:35.101Z,8.60
2022-11-05T18:34:04.088Z,7.60
2022-11-05T18:36:33.354Z,6.70
2022-11-05T18:39:04.239Z,8.20
2022-11-05T18:41:33.437Z,6.50
2022-11-05T18:44:03.526Z,8.50
2022-11-05T18:46:57.074Z,6.10
2022-11-05T18:49:22.776Z,8.60
2022-11-05T18:51:51.700Z,8.00
2022-11-05T18:54:20.501Z,9.20
2022-11-05T18:56:49.452Z,9.20
2022-11-05T18:59:36.843Z,6.00
2022-11-05T19:02:08.781Z,8.20
2022-11-05T19:04:38.201Z,9.70
2022-11-05T19:07:09.500Z,7.90
2022-11-05T19:09:39.682Z,7.90
2022-11-05T19:12:08.470Z,6.50
2022-11-05T19:14:37.471Z,8.90
2022-11-05T19:17:06.150Z,11.00
2022-11-05T19:19:34.737Z,8.00
2022-11-05T19:22:04.003Z,9.90
2022-11-05T19:24:32.819Z,11.00
2022-11-05T19:27:01.476Z,10.80
2022-11-05T19:29:30.052Z,10.10
2022-11-05T19:31:58.646Z,9.10
2022-11-05T19:34:27.477Z,10.50
2022-11-05T19:36:56.263Z,8.30
2022-11-05T19:39:24.919Z,8.10
2022-11-05T19:41:57.628Z,10.20
2022-11-05T19:44:30.729Z,11.40
2022-11-05T19:46:59.479Z,22.10
2022-11-05T19:49:31.351Z,28.80
2022-11-05T19:52:00.187Z,9.20
2022-11-05T19:54:29.049Z,10.20
2022-11-05T19:56:57.684Z,9.50
2022-11-05T19:59:26.366Z,15.10
2022-11-05T20:01:55.362Z,7.10
2022-11-05T20:04:24.172Z,11.70
2022-11-05T20:06:52.861Z,9.40
2022-11-05T20:09:23.160Z,18.30
2022-11-05T20:11:54.770Z,10.30
2022-11-05T20:14:25.503Z,10.90
2022-11-05T20:16:54.398Z,9.30
2022-11-05T20:19:23.540Z,12.40
2022-11-05T20:21:52.678Z,7.40
2022-11-05T20:24:25.084Z,10.50
2022-11-05T20:29:30.546Z,9.20
2022-11-05T20:32:04.497Z,11.20
2022-11-05T20:34:35.122Z,11.90
2022-11-05T20:37:05.565Z,7.00
2022-11-05T20:43:05.826Z,11.30
2022-11-05T20:45:34.475Z,12.00
2022-11-05T20:48:03.394Z,10.20
2022-11-05T20:50:31.977Z,12.20
2022-11-05T20:53:01.152Z,10.70
2022-11-05T20:55:29.910Z,9.90
2022-11-05T20:57:58.601Z,12.00
2022-11-05T21:00:27.237Z,12.80
2022-11-05T21:02:56.066Z,9.90
2022-11-05T21:05:24.845Z,12.40
2022-11-05T21:07:53.482Z,11.30
2022-11-05T21:10:23.275Z,10.70
2022-11-05T21:12:52.221Z,10.00
2022-11-05T21:15:23.722Z,13.80
2022-11-05T21:17:52.714Z,12.40
2022-11-05T21:20:21.772Z,10.00
2022-11-05T21:22:50.460Z,9.40
2022-11-05T21:25:20.416Z,8.20
2022-11-05T21:27:49.354Z,9.10
2022-11-05T21:30:18.113Z,11.00
2022-11-05T21:32:46.783Z,10.00
2022-11-05T21:35:15.402Z,10.00
2022-11-05T21:37:45.884Z,7.80
2022-11-05T21:40:15.629Z,9.90
2022-11-05T21:42:47.217Z,12.70
2022-11-05T21:45:16.477Z,9.60
2022-11-05T21:47:45.183Z,10.80
2022-11-05T21:50:16.093Z,11.80
2022-11-05T21:53:08.578Z,8.70
2022-11-05T21:56:31.982Z,12.00
2022-11-05T21:59:20.225Z,11.00
2022-11-05T22:01:51.166Z,11.00
2022-11-05T22:04:20.692Z,9.20
2022-11-05T22:06:49.460Z,9.80
2022-11-05T22:09:18.191Z,10.10
2022-11-05T22:11:46.926Z,13.20
2022-11-05T22:14:15.632Z,9.40
2022-11-05T22:16:45.172Z,10.00
2022-11-05T22:19:14.418Z,12.90
2022-11-05T22:21:43.063Z,12.20
2022-11-05T22:24:12.063Z,11.70
2022-11-05T22:26:43.707Z,9.10
2022-11-05T22:29:13.659Z,15.20
2022-11-05T22:31:42.387Z,9.00
2022-11-05T22:34:12.016Z,11.80
2022-11-05T22:36:40.890Z,10.30
2022-11-05T22:39:12.430Z,8.60
2022-11-05T22:41:42.191Z,10.00
2022-11-05T22:44:15.326Z,11.70
2022-11-05T22:46:44.691Z,9.10
2022-11-05T22:49:14.866Z,7.40
2022-11-05T22:51:45.614Z,8.80
2022-11-05T22:54:14.733Z,9.90
2022-11-05T22:56:44.335Z,8.50
2022-11-05T22:59:15.739Z,7.00
2022-11-05T23:01:45.750Z,6.60
2022-11-05T23:04:16.136Z,6.30
2022-11-05T23:07:03.146Z,6.30
2022-11-05T23:09:53.226Z,9.00
2022-11-05T23:12:32.664Z,10.10
2022-11-05T23:15:05.759Z,11.40
2022-11-05T23:17:53.207Z,9.40
2022-11-05T23:20:42.457Z,8.30
2022-11-05T23:23:31.733Z,7.60
2022-11-05T23:26:21.230Z,9.10
2022-11-05T23:28:49.988Z,6.70
2022-11-05T23:31:37.150Z,7.00
2022-11-05T23:34:05.890Z,8.70
2022-11-05T23:36:53.237Z,8.60
2022-11-05T23:39:22.107Z,6.50
2022-11-05T23:42:09.440Z,5.70
2022-11-05T23:44:56.882Z,6.90
2022-11-05T23:47:43.972Z,8.30
2022-11-05T23:50:12.872Z,6.00
2022-11-05T23:52:41.652Z,9.40
2022-11-05T23:55:10.558Z,17.70
2022-11-05T23:57:39.651Z,9.30
